キエフ/ボリースピリ の空港の天気 - METARとTAF

ボリースピリ国際空港(キエフ) ( UKBB / KBP ) - ウクライナ ボリスピリ (キエフ近郊)
飛行場実況気象(Metar)
観測時間06/18 02:30 EEST (06/17 23:30 UTC)
風向・風速北北西 5m/s
視程10km以上
天気現象
なし
気温21℃
湿度88%
気圧1016hPa
METARUKBB 172330Z 34005MPS CAVOK 21/19 Q1016 R88/D NOSIG
過去の天気等 Google飛行場航空写真 Wunderground天気予報

過去48時間のMETAR

飛行場予報(TAF)
発表時間: 6/18 02:01 EEST (6/17 23:01 UTC)
予報対象時間: 18日3時 EEST ~ 19日3時 EEST
風向・風速北北西 5m/s 瞬間風速 10m/s
視程10km以上
全天の8割程度の雲 雲底高度 910m
18日3時 EEST ~ 18日9時 EEST に一時的に
視程2000m
天気現象弱いしゅう雨 もや
全天の4割程度の雲 雲底高度 210m
全天の4割程度の積乱雲 雲底高度 760m
18日3時 EEST ~ 18日9時 EEST に 確率 40% で一時的に
風向・風速不定 9m/s 瞬間風速 16m/s
視程1600m
天気現象雷雨 スコール
全天の4割程度の雲 雲底高度 150m
全天の4割程度の積乱雲 雲底高度 610m
18日23時 EEST ~ 19日3時 EEST に一時的に
視程2000m
天気現象もや
全天の4割程度の雲 雲底高度 300m
TAF UKBB 172301Z 1800/1824 34005G10MPS 9999 BKN030 TX30/1813Z TN16/1802Z
TEMPO 1800/1806 2000 -SHRA BR SCT007 SCT025CB
PROB40 TEMPO 1800/1806 VRB09G16MPS 1600 TSRA SQ SCT005 SCT020CB
TEMPO 1820/1824 2000 BR SCT010